EWG6AY EGCC-EDDL
Flight info
| Callsign | EWG6AY |
|---|---|
| Flight time | 1h 20m |
| Altitude | 33000 |
| Route | DESIG L603 LAMSO/N0446F350 DCT EVELI DCT PAM P62 PISAP PISAP1A |
| Aircraft | A320/M-SDE3FGHIRWY/LB1 |
Departure
| Time | 2026-05-06 18:22 |
|---|---|
| Airport | Manchester Airport (EGCC) |
Arrival
| Time | 2026-05-06 19:43 |
|---|---|
| Airport | Düsseldorf Airport (EDDL) |
| Time | Latitude | Longitude | Altitude | Speed | Heading |
|---|---|---|---|---|---|
| 2026-05-06 17:46 | 53.36891 | -2.28789 | 255 ft | 0 kts | 135° |
| 2026-05-06 18:07 | 53.36900 | -2.28803 | 255 ft | 4 kts | 135° |
| 2026-05-06 18:07 | 53.36915 | -2.28829 | 255 ft | 4 kts | 145° |
| 2026-05-06 18:07 | 53.36932 | -2.28831 | 255 ft | 4 kts | 222° |
| 2026-05-06 18:08 | 53.36950 | -2.28802 | 255 ft | 3 kts | 225° |
| 2026-05-06 18:08 | 53.36953 | -2.28796 | 255 ft | 0 kts | 225° |
| 2026-05-06 18:15 | 53.36949 | -2.28804 | 255 ft | 5 kts | 224° |
| 2026-05-06 18:15 | 53.36922 | -2.28848 | 255 ft | 7 kts | 224° |
| 2026-05-06 18:16 | 53.36870 | -2.28933 | 255 ft | 12 kts | 225° |
| 2026-05-06 18:16 | 53.36807 | -2.29017 | 255 ft | 11 kts | 205° |
| 2026-05-06 18:16 | 53.36741 | -2.29025 | 255 ft | 9 kts | 152° |
| 2026-05-06 18:16 | 53.36693 | -2.28952 | 255 ft | 11 kts | 135° |
| 2026-05-06 18:17 | 53.36619 | -2.28871 | 255 ft | 15 kts | 141° |
| 2026-05-06 18:17 | 53.36557 | -2.28722 | 255 ft | 16 kts | 130° |
| 2026-05-06 18:17 | 53.36474 | -2.28580 | 255 ft | 18 kts | 135° |
| 2026-05-06 18:17 | 53.36365 | -2.28475 | 255 ft | 19 kts | 166° |
| 2026-05-06 18:18 | 53.36260 | -2.28329 | 255 ft | 20 kts | 135° |
| 2026-05-06 18:18 | 53.36157 | -2.28153 | 255 ft | 22 kts | 135° |
| 2026-05-06 18:18 | 53.36042 | -2.27974 | 255 ft | 23 kts | 139° |
| 2026-05-06 18:18 | 53.35916 | -2.27851 | 255 ft | 21 kts | 176° |
| 2026-05-06 18:19 | 53.35753 | -2.27874 | 247 ft | 26 kts | 186° |
| 2026-05-06 18:19 | 53.35615 | -2.27925 | 240 ft | 19 kts | 219° |
| 2026-05-06 18:19 | 53.35522 | -2.28097 | 234 ft | 21 kts | 220° |
| 2026-05-06 18:19 | 53.35388 | -2.28161 | 237 ft | 20 kts | 188° |
| 2026-05-06 18:20 | 53.35251 | -2.28272 | 232 ft | 24 kts | 221° |
| 2026-05-06 18:20 | 53.35136 | -2.28499 | 227 ft | 28 kts | 230° |
| 2026-05-06 18:20 | 53.35023 | -2.28725 | 227 ft | 25 kts | 226° |
| 2026-05-06 18:20 | 53.34909 | -2.28926 | 224 ft | 19 kts | 227° |
| 2026-05-06 18:21 | 53.34798 | -2.29069 | 222 ft | 22 kts | 193° |
| 2026-05-06 18:21 | 53.34680 | -2.28989 | 218 ft | 16 kts | 120° |
| 2026-05-06 18:21 | 53.34698 | -2.28896 | 224 ft | 0 kts | 50° |
| 2026-05-06 18:22 | 53.34824 | -2.28638 | 229 ft | 65 kts | 51° |
| 2026-05-06 18:22 | 53.35253 | -2.27747 | 238 ft | 128 kts | 51° |
| 2026-05-06 18:22 | 53.35881 | -2.26419 | 476 ft | 153 kts | 51° |
| 2026-05-06 18:22 | 53.36545 | -2.25018 | 1142 ft | 153 kts | 54° |
| 2026-05-06 18:23 | 53.37209 | -2.23625 | 1889 ft | 151 kts | 54° |
| 2026-05-06 18:23 | 53.37840 | -2.22300 | 2600 ft | 142 kts | 54° |
| 2026-05-06 18:23 | 53.38424 | -2.21077 | 3308 ft | 123 kts | 54° |
| 2026-05-06 18:23 | 53.39000 | -2.19884 | 3462 ft | 146 kts | 53° |
| 2026-05-06 18:24 | 53.39631 | -2.18574 | 3924 ft | 141 kts | 53° |
| 2026-05-06 18:24 | 53.40225 | -2.17317 | 4375 ft | 140 kts | 53° |
| 2026-05-06 18:24 | 53.40849 | -2.16000 | 4833 ft | 145 kts | 50° |
| 2026-05-06 18:24 | 53.41532 | -2.14659 | 5219 ft | 163 kts | 48° |
| 2026-05-06 18:25 | 53.42324 | -2.13120 | 5528 ft | 185 kts | 48° |
| 2026-05-06 18:25 | 53.43194 | -2.11348 | 5762 ft | 208 kts | 50° |
| 2026-05-06 18:25 | 53.44107 | -2.09339 | 6052 ft | 228 kts | 51° |
| 2026-05-06 18:25 | 53.45105 | -2.07126 | 6417 ft | 247 kts | 51° |
| 2026-05-06 18:26 | 53.46183 | -2.04754 | 6904 ft | 266 kts | 51° |
| 2026-05-06 18:26 | 53.47358 | -2.02190 | 7323 ft | 288 kts | 50° |
| 2026-05-06 18:26 | 53.48630 | -1.99437 | 7713 ft | 310 kts | 50° |
| 2026-05-06 18:26 | 53.50017 | -1.96481 | 8047 ft | 332 kts | 50° |
| 2026-05-06 18:27 | 53.51420 | -1.93273 | 8314 ft | 356 kts | 60° |
| 2026-05-06 18:27 | 53.52118 | -1.89194 | 8740 ft | 370 kts | 87° |
| 2026-05-06 18:27 | 53.51880 | -1.84997 | 10193 ft | 353 kts | 103° |
| 2026-05-06 18:27 | 53.51217 | -1.81165 | 11604 ft | 334 kts | 106° |
| 2026-05-06 18:28 | 53.50554 | -1.77366 | 12191 ft | 349 kts | 105° |
| 2026-05-06 18:28 | 53.49871 | -1.73331 | 12548 ft | 365 kts | 105° |
| 2026-05-06 18:28 | 53.49167 | -1.69188 | 13190 ft | 371 kts | 105° |
| 2026-05-06 18:28 | 53.48453 | -1.65052 | 13875 ft | 375 kts | 106° |
| 2026-05-06 18:29 | 53.47710 | -1.60813 | 14501 ft | 379 kts | 106° |
| 2026-05-06 18:29 | 53.46950 | -1.56530 | 15132 ft | 383 kts | 106° |
| 2026-05-06 18:29 | 53.46183 | -1.52226 | 15760 ft | 387 kts | 106° |
| 2026-05-06 18:29 | 53.45410 | -1.47916 | 16376 ft | 390 kts | 106° |
| 2026-05-06 18:30 | 53.44621 | -1.43538 | 17009 ft | 393 kts | 107° |
| 2026-05-06 18:30 | 53.43821 | -1.39115 | 17621 ft | 398 kts | 107° |
| 2026-05-06 18:30 | 53.43009 | -1.34629 | 18088 ft | 405 kts | 107° |
| 2026-05-06 18:30 | 53.42186 | -1.30086 | 18616 ft | 409 kts | 107° |
| 2026-05-06 18:31 | 53.41362 | -1.25545 | 19140 ft | 413 kts | 107° |
| 2026-05-06 18:31 | 53.40520 | -1.20900 | 19680 ft | 416 kts | 107° |
| 2026-05-06 18:31 | 53.39672 | -1.16232 | 20193 ft | 419 kts | 107° |
| 2026-05-06 18:31 | 53.38824 | -1.11580 | 20699 ft | 423 kts | 107° |
| 2026-05-06 18:32 | 53.37959 | -1.06853 | 21203 ft | 426 kts | 107° |
| 2026-05-06 18:32 | 53.37084 | -1.02080 | 21678 ft | 429 kts | 107° |
| 2026-05-06 18:32 | 53.36201 | -0.97289 | 22149 ft | 432 kts | 107° |
| 2026-05-06 18:32 | 53.35310 | -0.92467 | 22606 ft | 435 kts | 107° |
| 2026-05-06 18:33 | 53.34410 | -0.87597 | 23052 ft | 438 kts | 107° |
| 2026-05-06 18:33 | 53.33507 | -0.82722 | 23490 ft | 441 kts | 107° |
| 2026-05-06 18:33 | 53.32605 | -0.77867 | 23849 ft | 444 kts | 107° |
| 2026-05-06 18:33 | 53.31681 | -0.72911 | 24194 ft | 447 kts | 107° |
| 2026-05-06 18:34 | 53.30740 | -0.67872 | 24323 ft | 455 kts | 107° |
| 2026-05-06 18:34 | 53.29790 | -0.62794 | 24445 ft | 462 kts | 107° |
| 2026-05-06 18:34 | 53.28832 | -0.57698 | 24727 ft | 464 kts | 107° |
| 2026-05-06 18:34 | 53.27863 | -0.52571 | 25054 ft | 465 kts | 108° |
| 2026-05-06 18:35 | 53.26885 | -0.47419 | 25357 ft | 467 kts | 108° |
| 2026-05-06 18:35 | 53.25901 | -0.42237 | 25650 ft | 468 kts | 108° |
| 2026-05-06 18:35 | 53.24903 | -0.37004 | 25923 ft | 470 kts | 108° |
| 2026-05-06 18:35 | 53.23908 | -0.31789 | 26191 ft | 472 kts | 108° |
| 2026-05-06 18:36 | 53.22911 | -0.26555 | 26454 ft | 474 kts | 108° |
| 2026-05-06 18:36 | 53.21919 | -0.21371 | 26699 ft | 476 kts | 108° |
| 2026-05-06 18:36 | 53.20902 | -0.16075 | 26941 ft | 477 kts | 108° |
| 2026-05-06 18:36 | 53.19884 | -0.10793 | 27169 ft | 479 kts | 108° |
| 2026-05-06 18:37 | 53.18857 | -0.05486 | 27397 ft | 480 kts | 108° |
| 2026-05-06 18:37 | 53.17842 | -0.00257 | 27599 ft | 482 kts | 108° |
| 2026-05-06 18:37 | 53.16802 | 0.05101 | 27761 ft | 484 kts | 108° |
| 2026-05-06 18:37 | 53.15769 | 0.10402 | 27920 ft | 486 kts | 108° |
| 2026-05-06 18:38 | 53.14726 | 0.15745 | 28079 ft | 487 kts | 108° |
| 2026-05-06 18:38 | 53.13673 | 0.21130 | 28219 ft | 488 kts | 108° |
| 2026-05-06 18:38 | 53.12632 | 0.26445 | 28357 ft | 489 kts | 109° |
| 2026-05-06 18:38 | 53.11571 | 0.31840 | 28496 ft | 490 kts | 109° |
| 2026-05-06 18:39 | 53.10505 | 0.37236 | 28635 ft | 490 kts | 109° |
| 2026-05-06 18:39 | 53.09437 | 0.42621 | 28771 ft | 490 kts | 109° |
| 2026-05-06 18:39 | 53.08363 | 0.48032 | 28911 ft | 491 kts | 109° |
| 2026-05-06 18:40 | 53.06244 | 0.58672 | 29761 ft | 480 kts | 109° |
| 2026-05-06 18:40 | 53.05191 | 0.63932 | 30190 ft | 477 kts | 110° |
| 2026-05-06 18:40 | 53.04134 | 0.69180 | 30502 ft | 475 kts | 110° |
| 2026-05-06 18:40 | 53.03095 | 0.74317 | 30802 ft | 474 kts | 110° |
| 2026-05-06 18:41 | 53.02045 | 0.79504 | 31091 ft | 474 kts | 110° |
| 2026-05-06 18:41 | 53.00990 | 0.84704 | 31378 ft | 473 kts | 110° |
| 2026-05-06 18:41 | 52.99968 | 0.89728 | 31642 ft | 472 kts | 110° |
| 2026-05-06 18:41 | 52.98889 | 0.95021 | 31945 ft | 472 kts | 110° |
| 2026-05-06 18:42 | 52.97888 | 1.00183 | 32241 ft | 472 kts | 105° |
| 2026-05-06 18:42 | 52.97231 | 1.05484 | 32517 ft | 472 kts | 102° |
| 2026-05-06 18:42 | 52.96628 | 1.10821 | 32795 ft | 471 kts | 102° |
| 2026-05-06 18:42 | 52.96027 | 1.16092 | 32994 ft | 471 kts | 102° |
| 2026-05-06 18:43 | 52.95411 | 1.21414 | 33027 ft | 471 kts | 102° |
| 2026-05-06 18:43 | 52.94169 | 1.32063 | 33027 ft | 470 kts | 102° |
| 2026-05-06 18:44 | 52.92912 | 1.42709 | 33024 ft | 470 kts | 102° |
| 2026-05-06 18:44 | 52.91646 | 1.53361 | 33023 ft | 470 kts | 103° |
| 2026-05-06 18:45 | 52.90383 | 1.63941 | 33019 ft | 470 kts | 103° |
| 2026-05-06 18:45 | 52.89106 | 1.74579 | 33008 ft | 470 kts | 103° |
| 2026-05-06 18:46 | 52.87831 | 1.85142 | 33007 ft | 469 kts | 103° |
| 2026-05-06 18:46 | 52.86531 | 1.95734 | 33001 ft | 469 kts | 103° |
| 2026-05-06 18:47 | 52.85218 | 2.06328 | 32993 ft | 469 kts | 103° |
| 2026-05-06 18:47 | 52.83910 | 2.16845 | 32990 ft | 468 kts | 103° |
| 2026-05-06 18:48 | 52.82592 | 2.27411 | 33000 ft | 468 kts | 103° |
| 2026-05-06 18:48 | 52.81265 | 2.37909 | 32996 ft | 467 kts | 103° |
| 2026-05-06 18:49 | 52.79923 | 2.48405 | 32993 ft | 467 kts | 103° |
| 2026-05-06 18:49 | 52.78583 | 2.58908 | 32985 ft | 467 kts | 103° |
| 2026-05-06 18:50 | 52.77228 | 2.69424 | 32989 ft | 467 kts | 103° |
| 2026-05-06 18:50 | 52.75867 | 2.79872 | 32992 ft | 467 kts | 103° |
| 2026-05-06 18:51 | 52.74488 | 2.90359 | 32988 ft | 467 kts | 103° |
| 2026-05-06 18:51 | 52.72961 | 3.00785 | 32983 ft | 465 kts | 111° |
| 2026-05-06 18:52 | 52.70650 | 3.10694 | 32965 ft | 465 kts | 112° |
| 2026-05-06 18:52 | 52.68337 | 3.20684 | 32979 ft | 465 kts | 111° |
| 2026-05-06 18:53 | 52.66180 | 3.30681 | 32967 ft | 466 kts | 110° |
| 2026-05-06 18:53 | 52.64044 | 3.40769 | 32983 ft | 466 kts | 110° |
| 2026-05-06 18:54 | 52.61885 | 3.50771 | 32974 ft | 466 kts | 111° |
| 2026-05-06 18:54 | 52.59681 | 3.60817 | 32977 ft | 465 kts | 111° |
| 2026-05-06 18:55 | 52.57466 | 3.70821 | 32976 ft | 465 kts | 111° |
| 2026-05-06 18:55 | 52.55276 | 3.80688 | 32743 ft | 467 kts | 111° |
| 2026-05-06 18:55 | 52.54159 | 3.85708 | 32469 ft | 467 kts | 111° |
| 2026-05-06 18:56 | 52.53036 | 3.90743 | 32189 ft | 466 kts | 111° |
| 2026-05-06 18:56 | 52.51933 | 3.95691 | 31896 ft | 467 kts | 112° |
| 2026-05-06 18:56 | 52.50813 | 4.00712 | 31604 ft | 467 kts | 112° |
| 2026-05-06 18:56 | 52.49694 | 4.05713 | 31317 ft | 466 kts | 112° |
| 2026-05-06 18:57 | 52.48576 | 4.10697 | 31035 ft | 465 kts | 112° |
| 2026-05-06 18:57 | 52.47453 | 4.15695 | 30758 ft | 466 kts | 112° |
| 2026-05-06 18:57 | 52.46329 | 4.20686 | 30466 ft | 466 kts | 112° |
| 2026-05-06 18:57 | 52.45204 | 4.25672 | 30205 ft | 466 kts | 112° |
| 2026-05-06 18:58 | 52.44071 | 4.30673 | 29907 ft | 466 kts | 112° |
| 2026-05-06 18:58 | 52.42950 | 4.35600 | 29590 ft | 467 kts | 112° |
| 2026-05-06 18:58 | 52.41809 | 4.40589 | 29267 ft | 467 kts | 112° |
| 2026-05-06 18:58 | 52.40662 | 4.45596 | 28956 ft | 468 kts | 112° |
| 2026-05-06 18:59 | 52.39511 | 4.50601 | 28652 ft | 469 kts | 112° |
| 2026-05-06 18:59 | 52.38380 | 4.55521 | 28346 ft | 468 kts | 112° |
| 2026-05-06 18:59 | 52.37232 | 4.60516 | 28026 ft | 466 kts | 112° |
| 2026-05-06 18:59 | 52.36090 | 4.65479 | 27729 ft | 464 kts | 112° |
| 2026-05-06 19:00 | 52.34949 | 4.70432 | 27440 ft | 462 kts | 112° |
| 2026-05-06 19:00 | 52.33813 | 4.75337 | 27148 ft | 461 kts | 112° |
| 2026-05-06 19:00 | 52.32687 | 4.80178 | 26861 ft | 459 kts | 112° |
| 2026-05-06 19:00 | 52.31921 | 4.83461 | 26668 ft | 458 kts | 112° |
| 2026-05-06 19:01 | 52.30418 | 4.89900 | 26293 ft | 456 kts | 112° |
| 2026-05-06 19:01 | 52.29293 | 4.94729 | 26015 ft | 453 kts | 112° |
| 2026-05-06 19:01 | 52.28187 | 4.99471 | 25909 ft | 451 kts | 112° |
| 2026-05-06 19:01 | 52.27063 | 5.04272 | 25945 ft | 452 kts | 112° |
| 2026-05-06 19:02 | 52.25935 | 5.09063 | 25943 ft | 452 kts | 112° |
| 2026-05-06 19:02 | 52.24807 | 5.13844 | 25941 ft | 452 kts | 112° |
| 2026-05-06 19:02 | 52.23671 | 5.18651 | 25939 ft | 452 kts | 112° |
| 2026-05-06 19:02 | 52.22540 | 5.23433 | 25940 ft | 452 kts | 112° |
| 2026-05-06 19:03 | 52.21435 | 5.28089 | 25938 ft | 451 kts | 113° |
| 2026-05-06 19:03 | 52.20295 | 5.32876 | 25939 ft | 451 kts | 113° |
| 2026-05-06 19:03 | 52.19157 | 5.37634 | 25939 ft | 451 kts | 113° |
| 2026-05-06 19:03 | 52.18012 | 5.42398 | 25935 ft | 451 kts | 113° |
| 2026-05-06 19:04 | 52.17253 | 5.45556 | 25935 ft | 451 kts | 113° |
| 2026-05-06 19:04 | 52.15729 | 5.51908 | 25800 ft | 451 kts | 112° |
| 2026-05-06 19:04 | 52.14972 | 5.55064 | 25509 ft | 449 kts | 112° |
| 2026-05-06 19:04 | 52.13475 | 5.61300 | 24850 ft | 443 kts | 112° |
| 2026-05-06 19:05 | 52.12718 | 5.64450 | 24489 ft | 441 kts | 112° |
| 2026-05-06 19:05 | 52.11611 | 5.69047 | 23943 ft | 438 kts | 112° |
| 2026-05-06 19:05 | 52.10490 | 5.73673 | 23381 ft | 435 kts | 112° |
| 2026-05-06 19:05 | 52.09379 | 5.78239 | 22743 ft | 432 kts | 112° |
| 2026-05-06 19:06 | 52.08269 | 5.82781 | 22116 ft | 428 kts | 112° |
| 2026-05-06 19:06 | 52.07183 | 5.87216 | 21544 ft | 425 kts | 112° |
| 2026-05-06 19:06 | 52.06092 | 5.91667 | 20937 ft | 422 kts | 112° |
| 2026-05-06 19:06 | 52.05009 | 5.96073 | 20350 ft | 418 kts | 112° |
| 2026-05-06 19:07 | 52.03929 | 6.00462 | 19774 ft | 415 kts | 112° |
| 2026-05-06 19:07 | 52.02862 | 6.04802 | 19200 ft | 412 kts | 111° |
| 2026-05-06 19:07 | 52.01808 | 6.09097 | 18647 ft | 409 kts | 111° |
| 2026-05-06 19:07 | 52.00766 | 6.13338 | 18083 ft | 407 kts | 111° |
| 2026-05-06 19:08 | 51.99714 | 6.17602 | 17462 ft | 404 kts | 111° |
| 2026-05-06 19:08 | 51.98667 | 6.21822 | 17014 ft | 399 kts | 111° |
| 2026-05-06 19:08 | 51.97634 | 6.25982 | 16907 ft | 395 kts | 111° |
| 2026-05-06 19:08 | 51.96599 | 6.30074 | 16928 ft | 396 kts | 114° |
| 2026-05-06 19:09 | 51.95074 | 6.33789 | 16927 ft | 396 kts | 134° |
| 2026-05-06 19:09 | 51.92972 | 6.36670 | 16936 ft | 396 kts | 143° |
| 2026-05-06 19:09 | 51.90813 | 6.39371 | 16924 ft | 394 kts | 143° |
| 2026-05-06 19:09 | 51.88638 | 6.42083 | 16925 ft | 393 kts | 143° |
| 2026-05-06 19:10 | 51.86462 | 6.44797 | 16917 ft | 394 kts | 143° |
| 2026-05-06 19:10 | 51.84288 | 6.47506 | 16923 ft | 395 kts | 143° |
| 2026-05-06 19:10 | 51.82132 | 6.50193 | 16922 ft | 395 kts | 143° |
| 2026-05-06 19:10 | 51.79951 | 6.52910 | 16922 ft | 395 kts | 143° |
| 2026-05-06 19:11 | 51.77777 | 6.55616 | 16919 ft | 395 kts | 143° |
| 2026-05-06 19:11 | 51.75590 | 6.58333 | 16920 ft | 395 kts | 143° |
| 2026-05-06 19:11 | 51.73431 | 6.61012 | 16673 ft | 395 kts | 143° |
| 2026-05-06 19:11 | 51.71253 | 6.63703 | 16145 ft | 392 kts | 143° |
| 2026-05-06 19:12 | 51.69087 | 6.66366 | 15643 ft | 389 kts | 143° |
| 2026-05-06 19:12 | 51.66931 | 6.68994 | 15130 ft | 387 kts | 143° |
| 2026-05-06 19:12 | 51.64784 | 6.71589 | 14637 ft | 384 kts | 143° |
| 2026-05-06 19:12 | 51.62671 | 6.74123 | 14147 ft | 382 kts | 143° |
| 2026-05-06 19:13 | 51.60512 | 6.76644 | 13674 ft | 380 kts | 147° |
| 2026-05-06 19:13 | 51.58123 | 6.78283 | 13138 ft | 379 kts | 167° |
| 2026-05-06 19:13 | 51.55514 | 6.78515 | 12566 ft | 375 kts | 188° |
| 2026-05-06 19:13 | 51.53067 | 6.77308 | 12012 ft | 370 kts | 208° |
| 2026-05-06 19:14 | 51.50840 | 6.75207 | 11441 ft | 368 kts | 213° |
| 2026-05-06 19:14 | 51.48667 | 6.73031 | 10876 ft | 366 kts | 213° |
| 2026-05-06 19:14 | 51.46540 | 6.70891 | 10332 ft | 363 kts | 213° |
| 2026-05-06 19:14 | 51.44412 | 6.68745 | 9748 ft | 355 kts | 213° |
| 2026-05-06 19:15 | 51.42364 | 6.66677 | 9125 ft | 338 kts | 213° |
| 2026-05-06 19:15 | 51.40433 | 6.64728 | 8564 ft | 324 kts | 213° |
| 2026-05-06 19:15 | 51.38564 | 6.62843 | 8046 ft | 311 kts | 213° |
| 2026-05-06 19:15 | 51.36771 | 6.61043 | 7541 ft | 299 kts | 213° |
| 2026-05-06 19:16 | 51.35019 | 6.59296 | 7005 ft | 295 kts | 213° |
| 2026-05-06 19:16 | 51.33295 | 6.57577 | 6444 ft | 295 kts | 213° |
| 2026-05-06 19:16 | 51.31554 | 6.55844 | 5905 ft | 293 kts | 213° |
| 2026-05-06 19:16 | 51.29832 | 6.54123 | 5388 ft | 290 kts | 213° |
| 2026-05-06 19:17 | 51.28130 | 6.52404 | 5044 ft | 285 kts | 213° |
| 2026-05-06 19:17 | 51.26521 | 6.50631 | 4994 ft | 279 kts | 224° |
| 2026-05-06 19:17 | 51.25243 | 6.48351 | 5006 ft | 278 kts | 232° |
| 2026-05-06 19:17 | 51.24032 | 6.45940 | 5006 ft | 277 kts | 233° |
| 2026-05-06 19:18 | 51.22830 | 6.43520 | 5012 ft | 278 kts | 233° |
| 2026-05-06 19:18 | 51.21645 | 6.41132 | 5007 ft | 278 kts | 233° |
| 2026-05-06 19:18 | 51.20444 | 6.38710 | 5010 ft | 278 kts | 233° |
| 2026-05-06 19:18 | 51.19240 | 6.36281 | 5006 ft | 278 kts | 233° |
| 2026-05-06 19:19 | 51.17964 | 6.33960 | 5002 ft | 279 kts | 219° |
| 2026-05-06 19:19 | 51.16254 | 6.32614 | 5004 ft | 279 kts | 192° |
| 2026-05-06 19:19 | 51.14326 | 6.32660 | 5003 ft | 278 kts | 163° |
| 2026-05-06 19:19 | 51.12663 | 6.34104 | 5006 ft | 275 kts | 134° |
| 2026-05-06 19:20 | 51.11627 | 6.36614 | 5004 ft | 271 kts | 105° |
| 2026-05-06 19:20 | 51.11449 | 6.39538 | 5003 ft | 265 kts | 78° |
| 2026-05-06 19:20 | 51.12103 | 6.42214 | 4717 ft | 256 kts | 53° |
| 2026-05-06 19:20 | 51.13177 | 6.44474 | 4246 ft | 256 kts | 49° |
| 2026-05-06 19:21 | 51.14281 | 6.46700 | 3940 ft | 255 kts | 50° |
| 2026-05-06 19:21 | 51.15357 | 6.48918 | 3635 ft | 250 kts | 50° |
| 2026-05-06 19:21 | 51.16401 | 6.51087 | 3319 ft | 244 kts | 51° |
| 2026-05-06 19:21 | 51.17407 | 6.53179 | 3054 ft | 236 kts | 51° |
| 2026-05-06 19:22 | 51.18379 | 6.55202 | 3003 ft | 221 kts | 51° |
| 2026-05-06 19:22 | 51.19272 | 6.57059 | 2972 ft | 207 kts | 51° |
| 2026-05-06 19:22 | 51.20136 | 6.58856 | 2768 ft | 202 kts | 51° |
| 2026-05-06 19:22 | 51.20979 | 6.60612 | 2514 ft | 199 kts | 51° |
| 2026-05-06 19:23 | 51.21806 | 6.62334 | 2249 ft | 197 kts | 51° |
| 2026-05-06 19:23 | 51.22618 | 6.64028 | 2005 ft | 185 kts | 51° |
| 2026-05-06 19:23 | 51.23376 | 6.65613 | 1752 ft | 174 kts | 50° |
| 2026-05-06 19:23 | 51.24084 | 6.67092 | 1492 ft | 161 kts | 50° |
| 2026-05-06 19:24 | 51.24733 | 6.68449 | 1305 ft | 145 kts | 49° |
| 2026-05-06 19:24 | 51.25327 | 6.69690 | 1107 ft | 137 kts | 49° |
| 2026-05-06 19:24 | 51.25902 | 6.70891 | 903 ft | 135 kts | 50° |
| 2026-05-06 19:24 | 51.26492 | 6.72120 | 815 ft | 154 kts | 49° |
| 2026-05-06 19:25 | 51.27162 | 6.73508 | 1567 ft | 163 kts | 49° |
| 2026-05-06 19:25 | 51.27898 | 6.75034 | 2017 ft | 183 kts | 50° |
| 2026-05-06 19:25 | 51.28692 | 6.76785 | 2396 ft | 203 kts | 53° |
| 2026-05-06 19:25 | 51.29511 | 6.78679 | 2898 ft | 212 kts | 53° |
| 2026-05-06 19:26 | 51.30349 | 6.80615 | 2997 ft | 214 kts | 53° |
| 2026-05-06 19:26 | 51.31201 | 6.82583 | 3013 ft | 219 kts | 53° |
| 2026-05-06 19:26 | 51.32075 | 6.84595 | 3009 ft | 220 kts | 53° |
| 2026-05-06 19:26 | 51.32945 | 6.86608 | 2996 ft | 220 kts | 53° |
| 2026-05-06 19:27 | 51.33829 | 6.88608 | 2993 ft | 220 kts | 48° |
| 2026-05-06 19:27 | 51.35071 | 6.89943 | 2993 ft | 217 kts | 15° |
| 2026-05-06 19:27 | 51.36564 | 6.89901 | 2992 ft | 219 kts | 341° |
| 2026-05-06 19:27 | 51.37913 | 6.88769 | 3129 ft | 220 kts | 333° |
| 2026-05-06 19:28 | 51.39244 | 6.87576 | 3434 ft | 222 kts | 333° |
| 2026-05-06 19:28 | 51.40613 | 6.86351 | 3747 ft | 223 kts | 333° |
| 2026-05-06 19:28 | 51.41961 | 6.85139 | 4060 ft | 224 kts | 333° |
| 2026-05-06 19:28 | 51.43313 | 6.83912 | 4373 ft | 224 kts | 334° |
| 2026-05-06 19:29 | 51.44666 | 6.82660 | 4689 ft | 225 kts | 333° |
| 2026-05-06 19:29 | 51.46025 | 6.81399 | 4940 ft | 227 kts | 333° |
| 2026-05-06 19:29 | 51.47393 | 6.80137 | 4999 ft | 226 kts | 333° |
| 2026-05-06 19:29 | 51.48763 | 6.78875 | 5004 ft | 226 kts | 333° |
| 2026-05-06 19:30 | 51.50112 | 6.77631 | 4997 ft | 226 kts | 333° |
| 2026-05-06 19:30 | 51.51476 | 6.76364 | 5000 ft | 226 kts | 333° |
| 2026-05-06 19:30 | 51.52773 | 6.74927 | 4993 ft | 230 kts | 315° |
| 2026-05-06 19:30 | 51.53505 | 6.72619 | 4999 ft | 239 kts | 283° |
| 2026-05-06 19:31 | 51.53374 | 6.69969 | 5002 ft | 247 kts | 251° |
| 2026-05-06 19:31 | 51.52417 | 6.67674 | 5001 ft | 250 kts | 227° |
| 2026-05-06 19:31 | 51.49880 | 6.63825 | 5000 ft | 250 kts | 223° |
| 2026-05-06 19:32 | 51.48590 | 6.61936 | 5000 ft | 250 kts | 223° |
| 2026-05-06 19:32 | 51.47316 | 6.60076 | 5007 ft | 250 kts | 223° |
| 2026-05-06 19:32 | 51.46027 | 6.58192 | 5001 ft | 250 kts | 223° |
| 2026-05-06 19:32 | 51.44736 | 6.56310 | 5001 ft | 250 kts | 223° |
| 2026-05-06 19:33 | 51.43447 | 6.54430 | 5004 ft | 250 kts | 223° |
| 2026-05-06 19:33 | 51.42154 | 6.52545 | 5009 ft | 250 kts | 223° |
| 2026-05-06 19:33 | 51.40878 | 6.50684 | 5010 ft | 250 kts | 223° |
| 2026-05-06 19:33 | 51.39589 | 6.48804 | 5011 ft | 250 kts | 223° |
| 2026-05-06 19:34 | 51.38297 | 6.46928 | 5011 ft | 249 kts | 223° |
| 2026-05-06 19:34 | 51.37027 | 6.45096 | 5010 ft | 248 kts | 223° |
| 2026-05-06 19:34 | 51.35747 | 6.43257 | 5015 ft | 248 kts | 223° |
| 2026-05-06 19:34 | 51.34464 | 6.41410 | 5006 ft | 248 kts | 223° |
| 2026-05-06 19:35 | 51.33180 | 6.39566 | 5005 ft | 247 kts | 223° |
| 2026-05-06 19:35 | 51.31880 | 6.37751 | 5004 ft | 248 kts | 216° |
| 2026-05-06 19:35 | 51.30310 | 6.36758 | 5004 ft | 248 kts | 184° |
| 2026-05-06 19:35 | 51.28595 | 6.37006 | 4815 ft | 246 kts | 166° |
| 2026-05-06 19:36 | 51.26932 | 6.37653 | 4557 ft | 245 kts | 163° |
| 2026-05-06 19:36 | 51.25287 | 6.38339 | 4296 ft | 243 kts | 163° |
| 2026-05-06 19:36 | 51.23649 | 6.39027 | 4066 ft | 242 kts | 163° |
| 2026-05-06 19:36 | 51.22024 | 6.39712 | 3994 ft | 241 kts | 163° |
| 2026-05-06 19:37 | 51.20411 | 6.40392 | 4007 ft | 241 kts | 163° |
| 2026-05-06 19:37 | 51.18834 | 6.41079 | 3998 ft | 226 kts | 158° |
| 2026-05-06 19:37 | 51.17591 | 6.42452 | 3912 ft | 216 kts | 123° |
| 2026-05-06 19:37 | 51.17153 | 6.43837 | 3739 ft | 208 kts | 99° |
| 2026-05-06 19:38 | 51.17066 | 6.46832 | 3461 ft | 204 kts | 84° |
| 2026-05-06 19:38 | 51.17142 | 6.49092 | 3257 ft | 203 kts | 83° |
| 2026-05-06 19:38 | 51.17226 | 6.51306 | 3083 ft | 202 kts | 82° |
| 2026-05-06 19:38 | 51.17583 | 6.53428 | 3002 ft | 197 kts | 59° |
| 2026-05-06 19:39 | 51.18381 | 6.55209 | 3010 ft | 197 kts | 50° |
| 2026-05-06 19:39 | 51.19215 | 6.56940 | 2976 ft | 195 kts | 50° |
| 2026-05-06 19:39 | 51.20029 | 6.58633 | 2800 ft | 189 kts | 51° |
| 2026-05-06 19:39 | 51.20805 | 6.60249 | 2575 ft | 177 kts | 51° |
| 2026-05-06 19:40 | 51.21524 | 6.61749 | 2331 ft | 168 kts | 50° |
| 2026-05-06 19:40 | 51.22228 | 6.63214 | 2107 ft | 164 kts | 50° |
| 2026-05-06 19:40 | 51.22909 | 6.64636 | 1878 ft | 156 kts | 50° |
| 2026-05-06 19:40 | 51.23539 | 6.65952 | 1678 ft | 142 kts | 49° |
| 2026-05-06 19:41 | 51.24117 | 6.67160 | 1504 ft | 134 kts | 50° |
| 2026-05-06 19:41 | 51.24676 | 6.68326 | 1320 ft | 132 kts | 49° |
| 2026-05-06 19:41 | 51.25236 | 6.69496 | 1136 ft | 132 kts | 49° |
| 2026-05-06 19:41 | 51.25791 | 6.70657 | 941 ft | 133 kts | 49° |
| 2026-05-06 19:42 | 51.26355 | 6.71836 | 754 ft | 133 kts | 49° |
| 2026-05-06 19:42 | 51.26907 | 6.72992 | 573 ft | 131 kts | 49° |
| 2026-05-06 19:42 | 51.27458 | 6.74149 | 387 ft | 130 kts | 49° |
| 2026-05-06 19:42 | 51.28005 | 6.75301 | 225 ft | 130 kts | 49° |
| 2026-05-06 19:43 | 51.28535 | 6.76395 | 132 ft | 115 kts | 51° |
| 2026-05-06 19:43 | 51.28876 | 6.77116 | 130 ft | 38 kts | 53° |
| 2026-05-06 19:43 | 51.28987 | 6.77352 | 129 ft | 23 kts | 54° |
| 2026-05-06 19:43 | 51.29008 | 6.77552 | 127 ft | 17 kts | 121° |
| 2026-05-06 19:44 | 51.28960 | 6.77623 | 128 ft | 7 kts | 142° |
| 2026-05-06 19:44 | 51.28916 | 6.77647 | 129 ft | 6 kts | 192° |
| 2026-05-06 19:44 | 51.28887 | 6.77611 | 128 ft | 5 kts | 227° |
| 2026-05-06 19:44 | 51.28864 | 6.77565 | 128 ft | 8 kts | 232° |
| 2026-05-06 19:45 | 51.28821 | 6.77477 | 126 ft | 12 kts | 232° |
| 2026-05-06 19:45 | 51.28761 | 6.77350 | 130 ft | 17 kts | 233° |
| 2026-05-06 19:45 | 51.28696 | 6.77210 | 130 ft | 15 kts | 233° |
| 2026-05-06 19:45 | 51.28635 | 6.77081 | 130 ft | 14 kts | 233° |
| 2026-05-06 19:46 | 51.28573 | 6.76951 | 129 ft | 19 kts | 232° |
| 2026-05-06 19:46 | 51.28484 | 6.76760 | 126 ft | 23 kts | 233° |
| 2026-05-06 19:46 | 51.28382 | 6.76548 | 126 ft | 25 kts | 233° |
| 2026-05-06 19:46 | 51.28281 | 6.76337 | 124 ft | 22 kts | 232° |
| 2026-05-06 19:47 | 51.28193 | 6.76151 | 127 ft | 17 kts | 232° |
| 2026-05-06 19:47 | 51.28131 | 6.76034 | 129 ft | 12 kts | 210° |
| 2026-05-06 19:47 | 51.28054 | 6.76047 | 129 ft | 11 kts | 177° |
| 2026-05-06 19:47 | 51.27984 | 6.76046 | 126 ft | 10 kts | 180° |
| 2026-05-06 19:48 | 51.27922 | 6.76047 | 130 ft | 8 kts | 180° |
| 2026-05-06 19:48 | 51.27855 | 6.76044 | 130 ft | 12 kts | 181° |
| 2026-05-06 19:48 | 51.27764 | 6.76042 | 130 ft | 13 kts | 180° |
| 2026-05-06 19:48 | 51.27679 | 6.76039 | 129 ft | 12 kts | 182° |
| 2026-05-06 19:49 | 51.27603 | 6.76059 | 129 ft | 11 kts | 155° |
| 2026-05-06 19:49 | 51.27540 | 6.76112 | 129 ft | 10 kts | 148° |
| 2026-05-06 19:49 | 51.27516 | 6.76199 | 130 ft | 8 kts | 85° |
| 2026-05-06 19:49 | 51.27540 | 6.76271 | 128 ft | 7 kts | 28° |
| 2026-05-06 19:50 | 51.27595 | 6.76284 | 129 ft | 9 kts | 8° |
| 2026-05-06 19:50 | 51.27611 | 6.76288 | 129 ft | 1 kts | 9° |
| 2026-05-06 19:50 | 51.27613 | 6.76288 | 126 ft | 0 kts | 9° |